createdAt,value
2023-03-30T00:00:52.772Z,5.21
2023-03-30T00:03:22.932Z,5.20
2023-03-30T00:05:56.912Z,5.21
2023-03-30T00:08:28.942Z,5.05
2023-03-30T00:11:17.268Z,5.12
2023-03-30T00:13:44.852Z,4.93
2023-03-30T00:16:13.985Z,4.93
2023-03-30T00:18:41.607Z,4.94
2023-03-30T00:21:10.087Z,5.01
2023-03-30T00:23:38.678Z,4.91
2023-03-30T00:26:07.334Z,4.96
2023-03-30T00:28:34.853Z,4.82
2023-03-30T00:31:02.289Z,4.73
2023-03-30T00:33:44.015Z,4.85
2023-03-30T00:36:12.636Z,4.80
2023-03-30T00:38:40.987Z,4.76
2023-03-30T00:41:08.113Z,4.76
2023-03-30T00:43:36.298Z,4.57
2023-03-30T00:46:03.424Z,4.67
2023-03-30T00:48:33.040Z,4.72
2023-03-30T00:51:03.212Z,4.69
2023-03-30T00:53:34.161Z,4.65
2023-03-30T00:56:03.149Z,4.59
2023-03-30T00:58:30.205Z,4.64
2023-03-30T01:00:58.611Z,4.64
2023-03-30T01:03:32.710Z,4.46
2023-03-30T01:06:01.907Z,4.49
2023-03-30T01:08:32.690Z,4.60
2023-03-30T01:11:04.013Z,4.57
2023-03-30T01:13:33.449Z,4.52
2023-03-30T01:16:15.609Z,4.54
2023-03-30T01:19:02.186Z,4.52
2023-03-30T01:21:49.451Z,4.47
2023-03-30T01:24:28.643Z,4.47
2023-03-30T01:27:31.114Z,4.44
2023-03-30T01:30:23.075Z,4.43
2023-03-30T01:33:02.369Z,4.34
2023-03-30T01:35:58.269Z,4.38
2023-03-30T01:38:34.547Z,4.36
2023-03-30T01:41:33.588Z,4.38
2023-03-30T01:44:04.403Z,4.26
2023-03-30T01:46:35.337Z,4.24
2023-03-30T01:49:11.045Z,4.23
2023-03-30T01:52:21.510Z,4.23
2023-03-30T01:54:52.110Z,4.20
2023-03-30T01:57:22.068Z,4.18
2023-03-30T01:59:57.259Z,4.11
2023-03-30T02:02:27.669Z,4.03
2023-03-30T02:04:57.791Z,4.06
2023-03-30T02:07:29.776Z,4.02
2023-03-30T02:10:01.489Z,3.94
2023-03-30T02:12:31.083Z,3.95
2023-03-30T02:15:01.474Z,3.88
2023-03-30T02:17:29.600Z,4.02
2023-03-30T02:19:58.526Z,4.02
2023-03-30T02:22:26.703Z,4.02
2023-03-30T02:24:56.152Z,3.90
2023-03-30T02:27:24.017Z,3.96
2023-03-30T02:29:51.088Z,3.87
2023-03-30T02:32:23.033Z,3.89
2023-03-30T02:35:09.551Z,3.88
2023-03-30T02:37:42.714Z,3.87
2023-03-30T02:40:24.678Z,3.69
2023-03-30T02:43:34.253Z,3.67
2023-03-30T02:46:09.820Z,3.66
2023-03-30T02:48:45.900Z,3.60
2023-03-30T02:51:41.260Z,3.66
2023-03-30T02:54:29.871Z,3.60
2023-03-30T02:57:34.870Z,3.67
2023-03-30T03:00:35.384Z,3.58
2023-03-30T03:03:09.043Z,3.57
2023-03-30T03:05:36.782Z,3.67
2023-03-30T03:08:09.452Z,3.66
2023-03-30T03:10:37.291Z,3.65
2023-03-30T03:13:05.805Z,3.60
2023-03-30T03:15:33.053Z,3.58
2023-03-30T03:18:07.487Z,3.51
2023-03-30T03:20:36.501Z,3.55
2023-03-30T03:23:04.563Z,3.46
2023-03-30T03:25:39.378Z,3.43
2023-03-30T03:28:07.838Z,3.29
2023-03-30T03:30:41.817Z,3.33
2023-03-30T03:33:14.963Z,3.35
2023-03-30T03:35:49.823Z,3.28
2023-03-30T03:38:17.243Z,3.33
2023-03-30T03:40:44.398Z,3.31
2023-03-30T03:43:11.359Z,3.26
2023-03-30T03:45:38.381Z,3.39
2023-03-30T03:48:05.609Z,3.41
2023-03-30T03:50:54.629Z,3.41
2023-03-30T03:53:22.302Z,3.43
2023-03-30T03:55:52.151Z,3.44
2023-03-30T03:58:19.369Z,3.43
2023-03-30T04:00:46.929Z,3.35
2023-03-30T04:03:14.200Z,3.28
2023-03-30T04:05:42.381Z,3.40
2023-03-30T04:08:11.108Z,3.31
2023-03-30T04:10:41.019Z,3.24
2023-03-30T04:13:20.174Z,3.42
2023-03-30T04:16:12.520Z,3.43
2023-03-30T04:18:47.473Z,3.36
2023-03-30T04:21:30.158Z,3.40
2023-03-30T04:24:29.852Z,3.52
2023-03-30T04:27:17.056Z,3.55
2023-03-30T04:29:59.136Z,3.64
2023-03-30T04:32:54.787Z,3.58
2023-03-30T04:35:51.165Z,3.63
2023-03-30T04:39:00.600Z,3.65
2023-03-30T04:41:47.910Z,3.55
2023-03-30T04:44:33.369Z,3.37
2023-03-30T04:47:24.881Z,3.35
2023-03-30T04:50:10.856Z,3.45
2023-03-30T04:52:57.039Z,3.43
2023-03-30T04:55:59.274Z,3.37
2023-03-30T04:58:46.737Z,3.18
2023-03-30T05:01:26.093Z,3.25
2023-03-30T05:04:08.629Z,3.39
2023-03-30T05:06:54.698Z,3.24
2023-03-30T05:09:38.469Z,3.35
2023-03-30T05:12:32.149Z,3.38
2023-03-30T05:15:18.388Z,3.37
2023-03-30T05:18:12.010Z,3.42
2023-03-30T05:20:44.495Z,3.39
2023-03-30T05:23:30.790Z,3.47
2023-03-30T05:26:09.130Z,3.71
2023-03-30T05:28:52.886Z,3.73
2023-03-30T05:31:31.850Z,3.66
2023-03-30T05:34:05.135Z,3.81
2023-03-30T05:36:52.450Z,3.78
2023-03-30T05:39:42.643Z,3.68
2023-03-30T05:42:36.648Z,3.41
2023-03-30T05:45:30.166Z,3.48
2023-03-30T05:48:10.722Z,3.45
2023-03-30T05:50:48.035Z,3.50
2023-03-30T05:53:37.991Z,3.56
2023-03-30T05:56:23.690Z,3.47
2023-03-30T05:59:16.389Z,3.33
2023-03-30T06:02:03.066Z,3.39
2023-03-30T06:04:31.764Z,3.66
2023-03-30T06:07:00.329Z,3.84
2023-03-30T06:09:27.391Z,4.00
2023-03-30T06:11:57.427Z,4.01
2023-03-30T06:14:25.175Z,4.13
2023-03-30T06:17:16.198Z,4.23
2023-03-30T06:19:44.814Z,4.31
2023-03-30T06:22:12.533Z,4.31
2023-03-30T06:24:45.931Z,4.16
2023-03-30T06:27:14.056Z,4.28
2023-03-30T06:29:42.055Z,4.27
2023-03-30T06:32:10.057Z,4.40
2023-03-30T06:35:00.962Z,4.33
2023-03-30T06:37:32.409Z,4.27
2023-03-30T06:39:59.652Z,4.29
2023-03-30T06:42:27.983Z,4.46
2023-03-30T06:45:04.948Z,4.65
2023-03-30T06:47:32.231Z,4.81
2023-03-30T06:49:59.410Z,4.88
2023-03-30T06:52:38.838Z,5.29
2023-03-30T06:55:06.941Z,5.52
2023-03-30T06:57:34.134Z,5.70
2023-03-30T07:00:06.614Z,5.36
2023-03-30T07:02:36.881Z,5.54
2023-03-30T07:05:16.134Z,5.27
2023-03-30T07:08:08.030Z,5.08
2023-03-30T07:10:37.678Z,4.92
2023-03-30T07:13:09.202Z,4.82
2023-03-30T07:15:39.537Z,4.72
2023-03-30T07:18:07.469Z,4.65
2023-03-30T07:20:38.432Z,4.38
2023-03-30T07:23:20.642Z,4.31
2023-03-30T07:25:51.413Z,4.26
2023-03-30T07:28:40.529Z,4.43
2023-03-30T07:31:10.944Z,4.55
2023-03-30T07:33:41.093Z,4.50
2023-03-30T07:36:13.745Z,4.48
2023-03-30T07:38:46.420Z,4.43
2023-03-30T07:41:16.454Z,4.57
2023-03-30T07:43:46.990Z,4.60
2023-03-30T07:46:14.253Z,4.70
2023-03-30T07:48:45.951Z,4.85
2023-03-30T07:51:18.544Z,4.96
2023-03-30T07:54:05.704Z,4.86
2023-03-30T07:56:53.081Z,4.83
2023-03-30T07:59:23.326Z,4.91
2023-03-30T08:01:54.615Z,5.09
2023-03-30T08:04:44.751Z,5.19
2023-03-30T08:07:13.792Z,5.04
2023-03-30T08:09:41.200Z,4.95
2023-03-30T08:12:08.290Z,4.96
2023-03-30T08:14:35.251Z,4.76
2023-03-30T08:17:04.151Z,4.71
2023-03-30T08:19:36.954Z,4.67
2023-03-30T08:22:04.166Z,4.63
2023-03-30T08:24:32.377Z,4.25
2023-03-30T08:26:59.422Z,4.14
2023-03-30T08:29:26.536Z,3.92
2023-03-30T08:31:53.980Z,4.07
2023-03-30T08:34:21.164Z,3.90
2023-03-30T08:36:48.334Z,3.96
2023-03-30T08:39:15.910Z,4.04
2023-03-30T08:42:04.100Z,4.02
2023-03-30T08:44:37.144Z,3.95
2023-03-30T08:47:08.810Z,4.03
2023-03-30T08:49:42.951Z,4.02
2023-03-30T08:52:15.226Z,4.16
2023-03-30T08:54:42.447Z,4.13
2023-03-30T08:57:32.313Z,4.18
2023-03-30T09:00:17.842Z,4.25
2023-03-30T09:02:47.525Z,4.17
2023-03-30T09:05:25.800Z,4.10
2023-03-30T09:07:59.001Z,4.17
2023-03-30T09:10:27.705Z,4.44
2023-03-30T09:12:58.098Z,4.43
2023-03-30T09:15:37.375Z,4.39
2023-03-30T09:18:14.785Z,4.54
2023-03-30T09:20:45.526Z,4.56
2023-03-30T09:24:09.485Z,4.82
2023-03-30T09:27:06.625Z,4.71
2023-03-30T09:29:58.552Z,4.51
2023-03-30T09:32:34.641Z,4.62
2023-03-30T09:35:40.157Z,4.60
2023-03-30T09:38:12.083Z,4.55
2023-03-30T09:40:51.206Z,4.61
2023-03-30T09:43:44.292Z,4.42
2023-03-30T09:46:17.308Z,4.03
2023-03-30T09:49:16.807Z,3.93
2023-03-30T09:51:56.762Z,3.69
2023-03-30T09:54:24.375Z,3.73
2023-03-30T09:56:54.447Z,4.09
2023-03-30T09:59:38.498Z,4.01
2023-03-30T10:02:19.487Z,3.93
2023-03-30T10:04:59.100Z,3.72
2023-03-30T10:07:42.320Z,3.57
2023-03-30T10:10:23.160Z,3.43
2023-03-30T10:12:51.541Z,3.32
2023-03-30T10:15:19.900Z,3.31
2023-03-30T10:17:48.389Z,3.41
2023-03-30T10:20:34.628Z,3.26
2023-03-30T10:23:11.767Z,3.58
2023-03-30T10:25:43.945Z,3.62
2023-03-30T10:28:17.563Z,3.51
2023-03-30T10:30:54.696Z,3.84
2023-03-30T10:33:22.514Z,3.82
2023-03-30T10:36:02.210Z,3.68
2023-03-30T10:38:35.705Z,3.91
2023-03-30T10:41:13.463Z,3.89
2023-03-30T10:43:42.171Z,3.93
2023-03-30T10:46:19.408Z,3.99
2023-03-30T10:49:13.686Z,3.93
2023-03-30T10:52:13.642Z,3.72
2023-03-30T10:54:52.348Z,3.48
2023-03-30T10:57:31.384Z,3.36
2023-03-30T11:00:33.488Z,3.30
2023-03-30T11:03:29.559Z,3.53
2023-03-30T11:06:02.217Z,3.35
2023-03-30T11:08:42.319Z,3.30
2023-03-30T11:11:24.530Z,3.22
2023-03-30T11:14:04.339Z,3.20
2023-03-30T11:17:04.371Z,3.38
2023-03-30T11:20:00.424Z,3.75
2023-03-30T11:22:51.625Z,3.46
2023-03-30T11:25:34.811Z,3.15
2023-03-30T11:28:20.767Z,3.30
2023-03-30T11:30:50.587Z,3.25
2023-03-30T11:33:37.383Z,3.78
2023-03-30T11:36:35.179Z,3.82
2023-03-30T11:39:04.918Z,3.57
2023-03-30T11:41:52.294Z,3.39
2023-03-30T11:44:36.524Z,3.34
2023-03-30T11:47:40.828Z,3.24
2023-03-30T11:50:20.507Z,3.07
2023-03-30T11:53:00.633Z,3.26
2023-03-30T11:55:46.178Z,3.00
2023-03-30T11:58:40.141Z,2.76
2023-03-30T12:01:28.561Z,2.83
2023-03-30T12:04:13.240Z,2.90
2023-03-30T12:06:53.761Z,2.93
2023-03-30T12:09:34.832Z,2.75
2023-03-30T12:12:16.033Z,2.95
2023-03-30T12:15:03.009Z,2.62
2023-03-30T12:17:46.413Z,2.63
2023-03-30T12:20:45.073Z,2.59
2023-03-30T12:23:17.662Z,2.65
2023-03-30T12:26:05.885Z,2.44
2023-03-30T12:29:05.065Z,2.27
2023-03-30T12:32:15.619Z,2.34
2023-03-30T12:34:45.189Z,2.17
2023-03-30T12:37:13.551Z,2.25
2023-03-30T12:39:45.145Z,2.27
2023-03-30T12:42:35.100Z,2.04
2023-03-30T12:45:23.948Z,2.06
2023-03-30T12:48:25.212Z,2.20
2023-03-30T12:51:23.994Z,2.15
2023-03-30T12:54:30.599Z,2.14
2023-03-30T12:57:46.371Z,2.22
2023-03-30T13:00:29.456Z,2.14
2023-03-30T13:03:18.480Z,2.19
2023-03-30T13:05:52.626Z,2.04
2023-03-30T13:08:31.038Z,1.99
2023-03-30T13:11:19.401Z,2.11
2023-03-30T13:13:53.990Z,2.07
2023-03-30T13:16:52.765Z,2.00
2023-03-30T13:19:32.289Z,1.95
2023-03-30T13:22:11.690Z,1.85
2023-03-30T13:25:23.280Z,1.86
2023-03-30T13:27:53.072Z,1.53
2023-03-30T13:30:20.098Z,1.72
2023-03-30T13:33:12.541Z,1.71
2023-03-30T13:35:49.894Z,1.76
2023-03-30T13:38:50.902Z,1.74
2023-03-30T13:41:42.934Z,1.63
2023-03-30T13:44:39.162Z,1.63
2023-03-30T13:47:41.523Z,1.70
2023-03-30T13:50:20.667Z,1.78
2023-03-30T13:52:48.432Z,1.83
2023-03-30T13:55:19.482Z,1.68
2023-03-30T13:57:46.736Z,1.64
2023-03-30T14:00:49.152Z,1.65
2023-03-30T14:03:41.223Z,1.62
2023-03-30T14:06:18.800Z,1.66
2023-03-30T14:08:50.890Z,1.67
2023-03-30T14:11:40.993Z,1.61
2023-03-30T14:14:08.308Z,1.39
2023-03-30T14:16:37.840Z,1.28
2023-03-30T14:19:12.712Z,1.22
2023-03-30T14:21:40.115Z,1.19
2023-03-30T14:24:10.757Z,1.15
2023-03-30T14:26:40.050Z,0.92
2023-03-30T14:29:13.351Z,0.93
2023-03-30T14:31:51.044Z,0.93
2023-03-30T14:34:26.489Z,0.87
2023-03-30T14:37:02.290Z,0.77
2023-03-30T14:39:30.755Z,0.74
2023-03-30T14:42:00.055Z,0.83
2023-03-30T14:44:27.278Z,0.77
2023-03-30T14:46:56.779Z,0.87
2023-03-30T14:49:30.290Z,0.91
2023-03-30T14:52:07.202Z,0.95
2023-03-30T14:55:07.494Z,0.93
2023-03-30T14:57:48.089Z,0.73
2023-03-30T15:00:34.854Z,0.80
2023-03-30T15:03:05.299Z,0.79
2023-03-30T15:05:44.984Z,0.88
2023-03-30T15:08:23.381Z,0.84
2023-03-30T15:11:01.726Z,0.73
2023-03-30T15:13:37.067Z,0.85
2023-03-30T15:16:04.957Z,0.84
2023-03-30T15:18:33.343Z,0.83
2023-03-30T15:21:00.956Z,0.76
2023-03-30T15:23:36.005Z,0.60
2023-03-30T15:26:04.569Z,0.70
2023-03-30T15:28:36.571Z,0.55
2023-03-30T15:31:07.145Z,0.62
2023-03-30T15:33:36.916Z,0.35
2023-03-30T15:36:07.723Z,0.35
2023-03-30T15:38:36.464Z,0.47
2023-03-30T15:41:12.369Z,0.47
2023-03-30T15:46:41.160Z,0.48
2023-03-30T15:49:12.591Z,0.41
2023-03-30T15:51:43.594Z,0.40
2023-03-30T15:54:17.071Z,0.43
2023-03-30T15:56:49.892Z,0.46
2023-03-30T15:59:20.809Z,0.43
2023-03-30T16:01:57.387Z,0.40
2023-03-30T16:04:25.387Z,0.24
2023-03-30T16:06:52.977Z,0.29
2023-03-30T16:09:20.189Z,0.43
2023-03-30T16:12:03.720Z,0.40
2023-03-30T16:14:31.357Z,0.52
2023-03-30T16:16:58.929Z,0.48
2023-03-30T16:19:27.317Z,0.36
2023-03-30T16:21:55.750Z,0.34
2023-03-30T16:24:22.824Z,0.29
2023-03-30T16:26:49.850Z,0.13
2023-03-30T16:29:22.406Z,0.12
2023-03-30T16:31:50.730Z,0.15
2023-03-30T16:34:18.459Z,0.11
2023-03-30T16:36:47.168Z,0.22
2023-03-30T16:39:21.939Z,0.18
2023-03-30T16:41:49.864Z,0.10
2023-03-30T16:44:18.966Z,-0.05
2023-03-30T16:46:47.713Z,0.03
2023-03-30T16:49:17.223Z,0.11
2023-03-30T16:51:45.807Z,0.06
2023-03-30T16:54:27.293Z,-0.14
2023-03-30T16:56:58.361Z,-0.05
2023-03-30T16:59:30.862Z,-0.02
2023-03-30T17:01:59.356Z,0.03
2023-03-30T17:04:26.907Z,0.06
2023-03-30T17:06:55.000Z,-0.10
2023-03-30T17:09:24.453Z,0.01
2023-03-30T17:11:51.629Z,0.04
2023-03-30T17:14:20.450Z,-0.02
2023-03-30T17:16:47.739Z,-0.14
2023-03-30T17:19:17.322Z,-0.11
2023-03-30T17:21:46.122Z,-0.21
2023-03-30T17:24:15.432Z,-0.17
2023-03-30T17:26:42.978Z,0.01
2023-03-30T17:36:18.639Z,-0.22
2023-03-30T17:51:42.740Z,-0.14
2023-03-30T17:54:13.312Z,-0.15
2023-03-30T17:56:52.874Z,-0.21
2023-03-30T17:59:29.310Z,-0.32
2023-03-30T18:01:56.894Z,-0.37
2023-03-30T18:04:25.007Z,-0.22
2023-03-30T18:06:52.509Z,-0.25
2023-03-30T18:09:20.618Z,-0.15
2023-03-30T18:11:53.714Z,-0.34
2023-03-30T18:14:40.413Z,-0.30
2023-03-30T18:17:08.972Z,-0.23
2023-03-30T18:19:38.415Z,-0.18
2023-03-30T18:22:07.422Z,-0.27
2023-03-30T18:24:34.539Z,-0.35
2023-03-30T18:27:02.620Z,-0.22
2023-03-30T18:29:31.267Z,-0.20
2023-03-30T18:32:02.683Z,-0.23
2023-03-30T18:34:34.272Z,-0.28
2023-03-30T18:37:04.216Z,-0.12
2023-03-30T18:42:12.482Z,-0.15
2023-03-30T18:44:39.656Z,-0.22
2023-03-30T18:47:07.013Z,-0.30
2023-03-30T18:52:20.288Z,-0.36
2023-03-30T18:54:47.797Z,-0.30
2023-03-30T18:57:14.778Z,-0.44
2023-03-30T18:59:42.040Z,-0.41
2023-03-30T19:02:09.409Z,-0.55
2023-03-30T19:04:36.601Z,-0.47
2023-03-30T19:07:03.850Z,-0.45
2023-03-30T19:09:42.091Z,-0.55
2023-03-30T19:12:12.062Z,-0.42
2023-03-30T19:14:39.182Z,-0.60
2023-03-30T19:17:08.080Z,-0.52
2023-03-30T19:19:35.261Z,-0.52
2023-03-30T19:22:02.376Z,-0.46
2023-03-30T19:24:29.511Z,-0.45
2023-03-30T19:26:56.701Z,-0.46
2023-03-30T19:29:23.822Z,-0.30
2023-03-30T19:31:52.799Z,-0.22
2023-03-30T19:34:20.191Z,-0.23
2023-03-30T19:36:52.695Z,-0.20
2023-03-30T19:39:22.042Z,-0.22
2023-03-30T19:41:51.702Z,-0.34
2023-03-30T19:44:18.709Z,-0.40
2023-03-30T19:46:45.976Z,-0.30
2023-03-30T19:49:13.191Z,-0.22
2023-03-30T19:51:40.248Z,-0.29
2023-03-30T19:54:10.951Z,-0.40
2023-03-30T19:56:37.929Z,-0.43
2023-03-30T19:59:07.591Z,-0.35
2023-03-30T20:01:43.741Z,-0.42
2023-03-30T20:07:07.879Z,-0.44
2023-03-30T20:16:46.976Z,-0.38
2023-03-30T20:19:28.995Z,-0.46
2023-03-30T20:22:00.151Z,-0.48
2023-03-30T20:24:27.377Z,-0.58
2023-03-30T20:26:54.438Z,-0.59
2023-03-30T20:29:21.546Z,-0.72
2023-03-30T20:31:48.714Z,-0.75
2023-03-30T20:34:16.709Z,-0.61
2023-03-30T20:36:46.301Z,-0.64
2023-03-30T20:39:14.223Z,-0.76
2023-03-30T20:41:43.941Z,-0.78
2023-03-30T20:44:13.911Z,-0.67
2023-03-30T20:46:43.625Z,-0.65
2023-03-30T20:49:13.535Z,-0.53
2023-03-30T20:51:43.433Z,-0.47
2023-03-30T20:54:11.157Z,-0.62
2023-03-30T20:56:38.432Z,-0.69
2023-03-30T20:59:06.535Z,-0.68
2023-03-30T21:01:34.263Z,-0.70
2023-03-30T21:04:03.080Z,-0.69
2023-03-30T21:06:31.601Z,-0.68
2023-03-30T21:09:01.579Z,-0.73
2023-03-30T21:11:30.001Z,-0.68
2023-03-30T21:13:57.111Z,-0.60
2023-03-30T21:19:17.825Z,-0.70
2023-03-30T21:21:45.625Z,-0.77
2023-03-30T21:24:12.806Z,-0.71
2023-03-30T21:26:40.583Z,-0.81
2023-03-30T21:29:07.737Z,-0.89
2023-03-30T21:31:34.969Z,-0.79
2023-03-30T21:34:02.180Z,-0.85
2023-03-30T21:36:29.243Z,-0.75
2023-03-30T21:38:57.711Z,-0.79
2023-03-30T21:41:26.535Z,-0.79
2023-03-30T21:43:53.636Z,-0.82
2023-03-30T21:46:23.213Z,-0.85
2023-03-30T21:48:53.348Z,-0.79
2023-03-30T21:51:28.846Z,-0.83
2023-03-30T21:53:56.865Z,-0.75
2023-03-30T21:56:26.073Z,-0.59
2023-03-30T21:58:53.101Z,-0.59
2023-03-30T22:01:21.943Z,-0.51
2023-03-30T22:03:49.075Z,-0.63
2023-03-30T22:06:17.382Z,-0.54
2023-03-30T22:08:45.659Z,-0.64
2023-03-30T22:11:21.062Z,-0.62
2023-03-30T22:13:49.032Z,-0.66
2023-03-30T22:16:22.586Z,-0.53
2023-03-30T22:18:50.698Z,-0.62
2023-03-30T22:21:20.535Z,-0.69
2023-03-30T22:23:47.736Z,-0.66
2023-03-30T22:26:15.056Z,-0.60
2023-03-30T22:28:42.907Z,-0.60
2023-03-30T22:31:11.795Z,-0.73
2023-03-30T22:33:39.242Z,-0.56
2023-03-30T22:36:20.577Z,-0.77
2023-03-30T22:38:52.174Z,-0.80
2023-03-30T22:41:24.007Z,-0.68
2023-03-30T22:43:56.267Z,-0.70
2023-03-30T22:46:25.947Z,-0.74
2023-03-30T22:48:55.684Z,-0.70
2023-03-30T22:51:26.709Z,-0.64
2023-03-30T22:53:58.722Z,-0.61
2023-03-30T22:56:27.604Z,-0.82
2023-03-30T22:58:54.829Z,-0.79
2023-03-30T23:01:22.989Z,-0.75
2023-03-30T23:03:50.799Z,-0.84
2023-03-30T23:06:19.297Z,-0.73
2023-03-30T23:08:48.748Z,-0.75
2023-03-30T23:11:16.189Z,-0.68
2023-03-30T23:13:43.151Z,-0.80
2023-03-30T23:16:10.783Z,-0.70
2023-03-30T23:18:38.469Z,-0.86
2023-03-30T23:21:07.217Z,-0.74
2023-03-30T23:23:36.020Z,-0.83
2023-03-30T23:26:09.157Z,-0.76
2023-03-30T23:28:38.574Z,-0.98
2023-03-30T23:31:16.737Z,-0.97
2023-03-30T23:33:45.015Z,-0.92
2023-03-30T23:36:13.976Z,-0.95
2023-03-30T23:38:41.666Z,-0.93
2023-03-30T23:41:08.989Z,-1.11
2023-03-30T23:43:36.052Z,-1.02
2023-03-30T23:46:03.214Z,-0.93
2023-03-30T23:48:35.386Z,-1.05
2023-03-30T23:51:02.401Z,-1.05
2023-03-30T23:53:29.538Z,-1.15
2023-03-30T23:55:56.637Z,-1.14
2023-03-30T23:58:24.436Z,-1.22
